Time;durP1;ratioP1;P1;durP2;ratioP2;P2;SDS_P1;SDS_P2;PMS_P1;PMS_P2;Temp;Humidity;BMP_temperature;BMP_pressure;BME280_temperature;BME280_humidity;BME280_pressure;Samples;Min_cycle;Max_cycle;Signal;HPM_P1;HPM_P2
2020/12/27 00:02:06;;;;;;;0.75;0.52;;;18.90;41.40;;;;;;5057109;28;20041;-70
2020/12/27 00:04:31;;;;;;;0.50;0.50;;;18.90;41.40;;;;;;5065735;28;20020;-70
2020/12/27 00:07:04;;;;;;;0.95;0.47;;;18.90;41.60;;;;;;5075238;28;20526;-70
2020/12/27 00:09:30;;;;;;;0.77;0.47;;;18.90;41.60;;;;;;5075762;28;20027;-69
2020/12/27 00:11:55;;;;;;;0.32;0.32;;;18.90;41.00;;;;;;5074809;28;20115;-70
2020/12/27 00:14:21;;;;;;;0.40;0.35;;;18.80;41.30;;;;;;5047727;28;20098;-70
2020/12/27 00:16:46;;;;;;;4.32;1.48;;;18.80;41.30;;;;;;5073374;28;20035;-70
2020/12/27 00:19:12;;;;;;;0.85;0.60;;;18.90;41.70;;;;;;5074621;28;20141;-70
2020/12/27 00:21:37;;;;;;;0.50;0.50;;;18.80;41.80;;;;;;5074093;28;20488;-70
2020/12/27 00:24:03;;;;;;;1.20;0.40;;;18.80;41.20;;;;;;5074233;28;20039;-70
2020/12/27 00:26:32;;;;;;;3.10;0.65;;;18.80;41.50;;;;;;5074202;28;20060;-70
2020/12/27 00:28:57;;;;;;;1.30;0.73;;;18.80;41.10;;;;;;5071675;28;20518;-70
2020/12/27 00:31:26;;;;;;;0.95;0.57;;;18.80;41.10;;;;;;5079185;28;20077;-70
2020/12/27 00:33:52;;;;;;;1.00;0.50;;;18.80;41.40;;;;;;5068383;28;20026;-70
2020/12/27 00:36:20;;;;;;;2.33;0.57;;;18.80;41.50;;;;;;5072736;28;20086;-70
2020/12/27 00:38:46;;;;;;;0.68;0.55;;;18.80;41.10;;;;;;5074747;28;20063;-70
2020/12/27 00:41:12;;;;;;;2.05;0.43;;;18.80;41.50;;;;;;5073111;28;20449;-72
2020/12/27 00:43:37;;;;;;;1.90;1.25;;;18.80;41.60;;;;;;5059379;28;20099;-70
2020/12/27 00:46:03;;;;;;;0.60;0.50;;;18.80;41.30;;;;;;5056513;28;20028;-71
2020/12/27 00:48:29;;;;;;;0.85;0.77;;;18.80;41.20;;;;;;5074602;28;20105;-71
2020/12/27 00:50:54;;;;;;;1.27;0.43;;;18.80;40.50;;;;;;5074045;28;20483;-71
2020/12/27 00:53:20;;;;;;;1.55;0.98;;;18.80;40.50;;;;;;5068630;28;20519;-71
2020/12/27 00:55:45;;;;;;;1.60;0.60;;;18.70;40.70;;;;;;5063281;28;20587;-71
2020/12/27 00:58:11;;;;;;;0.77;0.40;;;18.70;40.10;;;;;;5048841;28;20546;-71
2020/12/27 01:00:36;;;;;;;0.50;0.50;;;18.70;40.30;;;;;;5074539;28;20035;-72
2020/12/27 01:03:02;;;;;;;0.93;0.70;;;18.70;40.30;;;;;;5073466;28;20028;-71
2020/12/27 01:05:27;;;;;;;2.72;0.28;;;18.60;40.40;;;;;;5057096;28;20503;-71
2020/12/27 01:07:59;;;;;;;0.50;0.50;;;18.70;40.60;;;;;;5056381;28;20028;-71
2020/12/27 01:10:28;;;;;;;0.47;0.45;;;18.60;40.50;;;;;;5074477;28;20105;-71
2020/12/27 01:12:53;;;;;;;0.40;0.40;;;18.60;40.40;;;;;;5073721;28;20029;-71
2020/12/27 01:15:19;;;;;;;0.52;0.35;;;18.60;40.40;;;;;;5069254;28;20514;-71
2020/12/27 01:17:54;;;;;;;1.20;1.10;;;18.60;40.60;;;;;;5073739;28;20519;-71
2020/12/27 01:20:19;;;;;;;0.60;0.40;;;18.60;41.00;;;;;;5055848;28;20032;-71
2020/12/27 01:22:45;;;;;;;4.53;0.50;;;18.60;41.10;;;;;;5056078;28;20025;-71
2020/12/27 01:25:11;;;;;;;1.20;0.30;;;18.60;40.70;;;;;;5068272;28;20112;-71
2020/12/27 01:27:37;;;;;;;0.45;0.45;;;18.60;40.70;;;;;;5063244;28;20020;-71
2020/12/27 01:30:04;;;;;;;3.47;1.55;;;18.60;41.20;;;;;;5073461;28;20508;-70
2020/12/27 01:32:29;;;;;;;0.80;0.38;;;18.50;40.70;;;;;;5059329;28;20450;-71
2020/12/27 01:34:55;;;;;;;0.22;0.22;;;18.50;41.00;;;;;;5062873;28;20033;-71
2020/12/27 01:37:20;;;;;;;1.35;0.65;;;18.50;40.60;;;;;;5034574;28;20040;-71
2020/12/27 01:39:46;;;;;;;0.50;0.35;;;18.50;40.90;;;;;;5067400;28;20112;-71
2020/12/27 01:42:11;;;;;;;1.38;0.35;;;18.50;41.00;;;;;;5072606;28;20049;-71
2020/12/27 01:44:37;;;;;;;0.65;0.20;;;18.50;41.00;;;;;;5072495;28;20518;-71
2020/12/27 01:47:13;;;;;;;0.43;0.43;;;18.50;41.00;;;;;;5060790;28;20569;-72
2020/12/27 01:49:38;;;;;;;1.25;0.45;;;18.40;40.90;;;;;;5062898;28;20082;-71
2020/12/27 01:52:04;;;;;;;0.52;0.35;;;18.40;40.70;;;;;;5049327;28;20033;-71
2020/12/27 01:54:29;;;;;;;0.32;0.15;;;18.40;40.80;;;;;;5067809;28;20095;-70
2020/12/27 01:56:55;;;;;;;0.17;0.10;;;18.40;40.90;;;;;;5073369;28;20029;-71
2020/12/27 01:59:27;;;;;;;0.30;0.25;;;18.40;41.00;;;;;;5055635;28;20190;-71
2020/12/27 02:01:52;;;;;;;0.45;0.30;;;18.40;41.30;;;;;;5055094;28;20100;-70
2020/12/27 02:04:18;;;;;;;0.77;0.50;;;18.50;41.40;;;;;;5072854;28;20107;-70
2020/12/27 02:06:43;;;;;;;0.30;0.30;;;18.50;41.70;;;;;;5038664;28;20024;-71
2020/12/27 02:09:09;;;;;;;0.30;0.30;;;18.50;41.10;;;;;;5053112;28;20047;-71
2020/12/27 02:11:35;;;;;;;0.30;0.30;;;18.50;40.70;;;;;;5072765;28;20032;-72
2020/12/27 02:14:00;;;;;;;0.93;0.60;;;18.40;41.00;;;;;;5022135;28;20021;-71
2020/12/27 02:16:28;;;;;;;0.43;0.40;;;18.50;41.00;;;;;;5073007;28;20032;-71
2020/12/27 02:19:01;;;;;;;0.55;0.55;;;18.50;40.70;;;;;;5066059;28;20016;-72
2020/12/27 02:21:26;;;;;;;1.75;0.32;;;18.40;40.90;;;;;;5055947;28;20024;-70
2020/12/27 02:24:02;;;;;;;0.20;0.10;;;18.40;40.80;;;;;;5054333;28;20031;-69
2020/12/27 02:26:28;;;;;;;1.75;0.47;;;18.40;40.90;;;;;;5051579;28;20048;-70
2020/12/27 02:28:54;;;;;;;0.80;0.50;;;18.40;40.70;;;;;;5058508;28;20117;-71
2020/12/27 02:31:27;;;;;;;0.43;0.43;;;18.40;40.50;;;;;;5054637;28;20036;-72
2020/12/27 02:33:58;;;;;;;0.20;0.20;;;18.40;40.40;;;;;;5038278;28;20032;-72
2020/12/27 02:36:24;;;;;;;1.00;0.20;;;18.30;40.30;;;;;;5036913;28;20025;-71
2020/12/27 02:38:49;;;;;;;0.25;0.25;;;18.30;40.30;;;;;;5048081;28;20415;-72
2020/12/27 02:41:20;;;;;;;0.43;0.43;;;18.30;40.30;;;;;;5055050;28;20477;-72
2020/12/27 02:43:46;;;;;;;0.82;0.60;;;18.20;41.10;;;;;;5018327;28;20567;-72
2020/12/27 02:46:20;;;;;;;1.60;0.55;;;18.20;40.30;;;;;;5040748;28;20105;-72
2020/12/27 02:48:45;;;;;;;0.38;0.38;;;18.20;40.30;;;;;;5054719;28;20115;-72
2020/12/27 02:51:11;;;;;;;1.23;0.30;;;18.20;40.30;;;;;;5054263;28;20111;-70
2020/12/27 02:53:37;;;;;;;0.38;0.30;;;18.20;40.50;;;;;;5034523;28;20068;-70
2020/12/27 02:56:03;;;;;;;0.20;0.20;;;18.20;40.40;;;;;;5058191;28;20034;-71
2020/12/27 02:58:28;;;;;;;0.40;0.28;;;18.10;40.30;;;;;;5064466;28;20110;-71
2020/12/27 03:00:54;;;;;;;0.50;0.30;;;18.10;40.50;;;;;;5072286;28;20021;-70
2020/12/27 03:03:19;;;;;;;0.10;0.00;;;18.10;40.20;;;;;;5054058;28;20123;-72
2020/12/27 03:05:48;;;;;;;0.47;0.47;;;18.10;40.40;;;;;;5057418;28;20032;-70
2020/12/27 03:08:13;;;;;;;0.10;0.10;;;18.00;40.20;;;;;;5072247;28;20483;-71
2020/12/27 03:10:39;;;;;;;0.28;0.25;;;18.10;40.90;;;;;;5054208;28;20024;-71
2020/12/27 03:13:05;;;;;;;1.67;0.50;;;18.00;40.40;;;;;;5073076;28;20036;-71
2020/12/27 03:15:30;;;;;;;0.20;0.20;;;18.10;40.50;;;;;;5025328;28;20065;-71
2020/12/27 03:17:57;;;;;;;0.30;0.30;;;18.10;40.50;;;;;;5076518;28;20431;-70
2020/12/27 03:20:22;;;;;;;0.47;0.47;;;18.00;40.60;;;;;;5058313;28;20033;-71
2020/12/27 03:22:48;;;;;;;1.02;0.25;;;18.00;40.50;;;;;;5076665;28;20028;-71
2020/12/27 03:25:13;;;;;;;0.35;0.35;;;18.00;40.50;;;;;;5069461;28;20027;-71
2020/12/27 03:27:39;;;;;;;0.40;0.40;;;18.00;40.60;;;;;;5078452;28;20020;-71
2020/12/27 03:30:05;;;;;;;0.10;0.10;;;18.00;40.50;;;;;;5083258;28;20028;-70
2020/12/27 03:32:30;;;;;;;0.10;0.10;;;18.00;40.60;;;;;;5022982;28;20538;-70
2020/12/27 03:34:56;;;;;;;0.77;0.20;;;18.00;40.40;;;;;;5078397;28;20024;-71
2020/12/27 03:37:22;;;;;;;0.17;0.17;;;18.00;40.30;;;;;;5082353;28;20434;-71
2020/12/27 03:39:47;;;;;;;0.20;0.20;;;18.00;41.10;;;;;;5076036;28;20442;-71
2020/12/27 03:42:23;;;;;;;0.35;0.35;;;18.00;40.50;;;;;;5060854;28;20037;-71
2020/12/27 03:44:51;;;;;;;0.20;0.20;;;18.00;40.30;;;;;;5056018;28;20029;-71
2020/12/27 03:47:17;;;;;;;0.25;0.25;;;18.00;40.10;;;;;;5065701;28;20032;-71
2020/12/27 03:49:42;;;;;;;0.22;0.10;;;18.00;40.00;;;;;;5076183;28;20090;-71
2020/12/27 03:52:08;;;;;;;1.85;0.20;;;17.90;39.80;;;;;;5061062;28;20508;-71
2020/12/27 03:54:33;;;;;;;0.70;0.30;;;17.90;39.90;;;;;;5075374;28;20165;-71
2020/12/27 03:56:59;;;;;;;0.13;0.13;;;17.90;40.10;;;;;;5075668;28;20110;-71
2020/12/27 03:59:24;;;;;;;0.20;0.20;;;17.90;40.20;;;;;;5067989;28;20033;-71
2020/12/27 04:01:50;;;;;;;0.10;0.10;;;17.90;40.10;;;;;;5055712;28;20042;-71
2020/12/27 04:04:16;;;;;;;0.10;0.10;;;17.90;40.30;;;;;;5075545;28;20073;-70
2020/12/27 04:06:41;;;;;;;0.10;0.10;;;17.90;40.70;;;;;;5075263;28;20020;-71
2020/12/27 04:09:07;;;;;;;0.20;0.20;;;17.90;40.40;;;;;;5062514;28;20033;-71
2020/12/27 04:11:32;;;;;;;0.10;0.10;;;17.90;40.40;;;;;;5073153;28;20090;-71
2020/12/27 04:13:58;;;;;;;0.10;0.10;;;17.80;40.30;;;;;;5060930;28;20035;-71
2020/12/27 04:16:23;;;;;;;0.28;0.20;;;17.90;41.40;;;;;;5065864;28;20039;-71
2020/12/27 04:18:49;;;;;;;0.10;0.10;;;17.90;40.70;;;;;;5074273;28;20036;-71
2020/12/27 04:21:14;;;;;;;0.10;0.10;;;17.90;40.70;;;;;;5075041;28;20043;-71
2020/12/27 04:23:40;;;;;;;0.20;0.10;;;17.80;40.40;;;;;;5053161;28;20511;-71
2020/12/27 04:26:06;;;;;;;0.13;0.10;;;17.90;40.60;;;;;;5074266;28;20055;-71
2020/12/27 04:28:31;;;;;;;0.28;0.28;;;17.80;40.50;;;;;;5075157;28;20093;-71
2020/12/27 04:30:57;;;;;;;0.55;0.28;;;17.80;40.70;;;;;;5074432;28;20117;-71
2020/12/27 04:33:22;;;;;;;0.03;0.03;;;17.80;40.50;;;;;;5072728;28;20029;-71
2020/12/27 04:35:48;;;;;;;0.00;0.00;;;17.80;40.50;;;;;;5074639;28;20494;-71
2020/12/27 04:38:13;;;;;;;0.08;0.08;;;17.80;40.50;;;;;;5057785;28;20453;-71
2020/12/27 04:40:45;;;;;;;0.10;0.10;;;17.80;40.70;;;;;;5057184;28;20017;-71
2020/12/27 04:43:10;;;;;;;0.60;0.10;;;17.80;40.70;;;;;;5055244;28;20483;-71
2020/12/27 04:45:36;;;;;;;0.10;0.10;;;17.80;41.00;;;;;;5043050;28;20028;-72
2020/12/27 04:48:02;;;;;;;0.22;0.10;;;17.70;41.00;;;;;;5056737;28;20044;-72
2020/12/27 04:50:27;;;;;;;0.10;0.10;;;17.80;41.00;;;;;;5074763;28;20393;-72
2020/12/27 04:52:53;;;;;;;0.17;0.10;;;17.80;41.00;;;;;;5072727;28;20029;-72
2020/12/27 04:55:19;;;;;;;0.10;0.00;;;17.80;41.10;;;;;;5038328;28;20157;-72
2020/12/27 04:57:46;;;;;;;0.03;0.03;;;17.80;41.00;;;;;;5055634;28;20254;-72
2020/12/27 05:00:12;;;;;;;0.30;0.10;;;17.80;41.00;;;;;;5056157;28;20027;-72
2020/12/27 05:02:37;;;;;;;0.65;0.25;;;17.80;41.20;;;;;;5037829;28;20029;-72
2020/12/27 05:05:12;;;;;;;0.10;0.10;;;17.80;41.20;;;;;;5058526;28;20040;-71
2020/12/27 05:07:40;;;;;;;0.10;0.10;;;17.80;41.40;;;;;;5073716;28;20025;-72
2020/12/27 05:10:06;;;;;;;1.10;0.10;;;17.80;41.50;;;;;;5055947;28;20063;-72
2020/12/27 05:12:31;;;;;;;0.10;0.10;;;17.80;41.70;;;;;;5054864;28;20145;-72
2020/12/27 05:14:57;;;;;;;0.20;0.10;;;17.80;41.70;;;;;;5055954;28;20025;-71
2020/12/27 05:17:22;;;;;;;0.00;0.00;;;17.80;41.70;;;;;;5065822;28;20025;-72
2020/12/27 05:19:48;;;;;;;0.10;0.10;;;17.80;41.70;;;;;;5062676;28;20115;-71
2020/12/27 05:22:13;;;;;;;0.10;0.10;;;17.80;41.80;;;;;;5055898;28;20040;-71
2020/12/27 05:24:39;;;;;;;0.52;0.10;;;17.80;41.80;;;;;;5073504;28;20074;-71
2020/12/27 05:27:06;;;;;;;0.10;0.10;;;17.80;41.80;;;;;;5056005;28;20043;-71
2020/12/27 05:29:33;;;;;;;0.03;0.03;;;17.80;41.90;;;;;;5066194;28;20021;-72
2020/12/27 05:31:59;;;;;;;0.52;0.20;;;17.80;41.90;;;;;;5073156;28;20024;-71
2020/12/27 05:34:26;;;;;;;0.65;0.30;;;17.80;41.90;;;;;;5055573;28;20016;-72
2020/12/27 05:36:51;;;;;;;0.95;0.20;;;17.80;42.10;;;;;;5072504;28;20549;-71
2020/12/27 05:39:17;;;;;;;0.10;0.10;;;17.70;42.00;;;;;;5047825;28;20033;-72
2020/12/27 05:41:42;;;;;;;0.08;0.08;;;17.80;42.10;;;;;;5058423;28;20083;-72
2020/12/27 05:44:08;;;;;;;0.10;0.10;;;17.70;42.00;;;;;;5073433;28;20021;-72
2020/12/27 05:46:34;;;;;;;0.47;0.10;;;17.70;42.00;;;;;;5038134;28;20037;-72
2020/12/27 05:48:59;;;;;;;0.25;0.10;;;17.70;41.90;;;;;;5055239;28;20036;-71
2020/12/27 05:51:25;;;;;;;0.52;0.20;;;17.70;41.80;;;;;;5058969;28;20037;-71
2020/12/27 05:53:52;;;;;;;0.10;0.10;;;17.70;41.90;;;;;;5054619;28;20040;-71
2020/12/27 05:56:19;;;;;;;0.13;0.05;;;17.70;41.90;;;;;;5055338;28;20123;-71
2020/12/27 05:58:44;;;;;;;0.10;0.10;;;17.60;41.90;;;;;;5029875;28;20052;-73
2020/12/27 06:01:10;;;;;;;0.20;0.10;;;17.60;42.00;;;;;;5055886;28;20033;-71
2020/12/27 06:03:36;;;;;;;0.10;0.10;;;17.60;42.10;;;;;;5044064;28;20042;-71
2020/12/27 06:06:06;;;;;;;0.10;0.10;;;17.60;42.00;;;;;;5055332;28;20021;-71
2020/12/27 06:09:00;;;;;;;0.00;0.00;;;17.60;42.10;;;;;;5072319;28;20032;-71
2020/12/27 06:11:55;;;;;;;0.03;0.00;;;17.60;42.10;;;;;;5050156;28;20127;-71
2020/12/27 06:14:38;;;;;;;0.10;0.10;;;17.50;41.90;;;;;;4953336;28;20173;-71
2020/12/27 06:17:13;;;;;;;0.10;0.10;;;17.50;41.90;;;;;;4955937;28;20402;-71
2020/12/27 06:19:52;;;;;;;0.35;0.10;;;17.50;42.00;;;;;;4956311;28;20053;-71
2020/12/27 06:22:25;;;;;;;0.17;0.10;;;17.50;41.90;;;;;;4956833;28;20165;-72
2020/12/27 06:24:51;;;;;;;0.52;0.00;;;17.50;41.90;;;;;;4954008;28;20042;-72
2020/12/27 06:27:17;;;;;;;0.25;0.10;;;17.50;41.80;;;;;;4956958;28;20120;-72
2020/12/27 06:33:18;;;;;;;0.10;0.00;;;17.40;41.80;;;;;;4964035;28;20098;-71
2020/12/27 06:35:44;;;;;;;0.10;0.10;;;17.50;42.00;;;;;;4953349;28;20418;-71
2020/12/27 06:38:16;;;;;;;0.00;0.00;;;17.50;42.10;;;;;;4971373;28;20089;-71
2020/12/27 06:40:46;;;;;;;0.45;0.00;;;17.50;42.20;;;;;;4954910;28;20026;-71
2020/12/27 06:43:24;;;;;;;0.00;0.00;;;17.60;42.30;;;;;;4970369;28;20048;-71
2020/12/27 06:45:50;;;;;;;0.00;0.00;;;17.60;41.90;;;;;;4956472;28;20491;-71
2020/12/27 06:48:36;;;;;;;0.10;0.00;;;17.70;41.90;;;;;;4955012;28;20027;-72
2020/12/27 06:51:01;;;;;;;0.03;0.03;;;17.80;42.00;;;;;;5033550;28;20055;-72
2020/12/27 06:53:40;;;;;;;0.57;0.17;;;17.80;41.80;;;;;;5058620;28;20095;-71
2020/12/27 06:56:05;;;;;;;0.10;0.10;;;17.90;41.50;;;;;;5054187;28;20021;-71
2020/12/27 06:58:31;;;;;;;0.05;0.05;;;18.00;41.60;;;;;;5054547;28;20395;-72
2020/12/27 07:01:29;;;;;;;0.00;0.00;;;18.10;41.40;;;;;;5054719;28;20107;-72
2020/12/27 07:04:15;;;;;;;0.10;0.00;;;18.20;41.30;;;;;;5030054;28;20529;-72
2020/12/27 07:06:48;;;;;;;0.30;0.10;;;18.30;41.10;;;;;;5029585;28;20034;-72
2020/12/27 07:09:23;;;;;;;0.10;0.00;;;18.40;40.90;;;;;;5026241;28;20433;-72
2020/12/27 07:12:01;;;;;;;;;;;18.40;40.70;;;;;;5013556;28;20064;-72
2020/12/27 07:14:27;;;;;;;0.00;0.00;;;18.50;40.70;;;;;;5023751;28;20112;-72
2020/12/27 07:16:55;;;;;;;0.00;0.00;;;18.60;40.60;;;;;;5012960;28;20132;-72
2020/12/27 07:19:23;;;;;;;0.20;0.20;;;18.60;40.40;;;;;;5022775;28;20034;-72
2020/12/27 07:21:48;;;;;;;0.08;0.00;;;18.70;40.30;;;;;;5008088;28;20544;-72
2020/12/27 07:24:17;;;;;;;0.30;0.10;;;18.80;40.10;;;;;;5024927;28;20100;-72
2020/12/27 07:26:44;;;;;;;0.08;0.08;;;18.80;40.10;;;;;;5024076;28;20029;-72
2020/12/27 07:29:13;;;;;;;0.10;0.10;;;18.80;40.10;;;;;;5013233;28;20083;-72
2020/12/27 07:31:39;;;;;;;0.10;0.00;;;18.80;40.10;;;;;;5012934;28;20079;-71
2020/12/27 07:34:05;;;;;;;1.00;0.10;;;18.90;40.00;;;;;;5029333;28;20091;-71
2020/12/27 07:36:34;;;;;;;0.10;0.10;;;18.90;40.10;;;;;;5012572;28;20418;-71
2020/12/27 07:39:01;;;;;;;1.45;0.17;;;19.00;40.10;;;;;;5039908;28;20115;-71
2020/12/27 07:45:12;;;;;;;0.20;0.10;;;18.90;39.90;;;;;;5051695;28;20051;-71
2020/12/27 07:47:41;;;;;;;0.10;0.10;;;18.90;40.00;;;;;;5028123;28;20021;-71
2020/12/27 07:50:19;;;;;;;0.20;0.00;;;18.90;39.90;;;;;;5041125;28;20048;-71
2020/12/27 07:52:55;;;;;;;0.10;0.10;;;18.90;39.70;;;;;;5036727;28;20068;-71
2020/12/27 07:55:30;;;;;;;0.10;0.10;;;18.90;39.90;;;;;;5056132;28;20471;-71
2020/12/27 07:57:57;;;;;;;;;;;18.90;40.00;;;;;;5034018;28;20056;-71
2020/12/27 08:00:42;;;;;;;0.03;0.00;;;18.90;40.00;;;;;;5018548;28;19905;-70
2020/12/27 08:03:08;;;;;;;0.00;0.00;;;19.00;40.10;;;;;;5055981;28;20111;-71
2020/12/27 08:05:40;;;;;;;0.00;0.00;;;19.00;40.10;;;;;;5041060;28;20401;-71
2020/12/27 08:08:07;;;;;;;0.70;0.20;;;19.00;40.10;;;;;;5039693;28;20024;-71
2020/12/27 08:10:32;;;;;;;0.10;0.10;;;18.90;40.10;;;;;;5021641;28;20412;-71
2020/12/27 08:12:59;;;;;;;0.10;0.10;;;19.00;40.20;;;;;;5057382;28;20032;-71
2020/12/27 08:15:26;;;;;;;0.00;0.00;;;19.00;40.40;;;;;;5037599;28;20044;-71
2020/12/27 08:17:59;;;;;;;0.00;0.00;;;19.00;40.30;;;;;;5022940;28;20528;-71
2020/12/27 08:20:25;;;;;;;0.00;0.00;;;19.00;40.20;;;;;;5037431;28;20016;-71
2020/12/27 08:23:09;;;;;;;0.30;0.00;;;19.00;40.30;;;;;;5057373;28;20476;-71
2020/12/27 08:25:38;;;;;;;0.00;0.00;;;19.00;40.20;;;;;;5050697;28;20025;-73
2020/12/27 08:28:08;;;;;;;0.00;0.00;;;19.00;40.20;;;;;;5020383;28;20045;-73
2020/12/27 08:30:34;;;;;;;0.10;0.10;;;19.00;40.20;;;;;;5036417;28;20025;-72
2020/12/27 08:33:19;;;;;;;0.10;0.10;;;18.90;40.00;;;;;;5019253;28;20124;-71
2020/12/27 08:35:51;;;;;;;0.10;0.10;;;18.90;40.00;;;;;;5048650;28;20035;-71
2020/12/27 08:38:41;;;;;;;0.10;0.10;;;18.90;40.20;;;;;;5035550;28;20526;-72
2020/12/27 08:41:23;;;;;;;0.00;0.00;;;18.90;40.00;;;;;;5053454;28;20032;-71
2020/12/27 08:44:15;;;;;;;0.20;0.10;;;18.80;40.10;;;;;;5019669;28;20500;-71
2020/12/27 08:46:41;;;;;;;0.52;0.10;;;18.80;40.40;;;;;;4950422;29;20114;-71
2020/12/27 08:52:28;;;;;;;0.00;0.00;;;18.80;40.10;;;;;;4952272;28;20159;-71
2020/12/27 08:55:00;;;;;;;0.08;0.08;;;18.80;40.40;;;;;;4927534;29;20053;-71
2020/12/27 08:57:25;;;;;;;1.83;0.20;;;18.80;40.30;;;;;;4914431;29;20087;-71
2020/12/27 09:00:02;;;;;;;0.43;0.30;;;18.80;40.50;;;;;;4930878;29;20039;-71
2020/12/27 09:05:49;;;;;;;0.75;0.10;;;18.80;40.10;;;;;;4952065;29;20037;-71
2020/12/27 09:08:18;;;;;;;0.10;0.10;;;18.80;40.80;;;;;;4951186;29;20575;-71
2020/12/27 09:10:43;;;;;;;0.10;0.10;;;18.80;40.40;;;;;;4919305;28;20035;-70
2020/12/27 09:13:10;;;;;;;0.10;0.10;;;18.70;40.00;;;;;;4917055;29;20590;-71
2020/12/27 09:15:46;;;;;;;0.13;0.10;;;18.70;39.90;;;;;;4951470;29;20124;-70
2020/12/27 09:18:16;;;;;;;0.38;0.00;;;18.70;39.80;;;;;;4953684;29;20042;-71
2020/12/27 09:20:45;;;;;;;0.05;0.05;;;18.70;39.90;;;;;;4952251;29;20043;-71
2020/12/27 09:23:14;;;;;;;0.10;0.10;;;18.70;39.60;;;;;;4979328;28;20456;-71
2020/12/27 09:25:40;;;;;;;0.00;0.00;;;18.60;39.60;;;;;;5042656;28;20049;-71
2020/12/27 09:28:16;;;;;;;0.10;0.10;;;18.60;39.50;;;;;;5035019;28;20119;-71
2020/12/27 09:30:48;;;;;;;1.38;0.00;;;18.60;39.50;;;;;;5034113;28;20439;-72
2020/12/27 09:33:20;;;;;;;0.10;0.10;;;18.60;39.60;;;;;;5038230;28;20035;-72
2020/12/27 09:35:56;;;;;;;0.38;0.10;;;18.60;39.50;;;;;;5031787;28;20045;-72
2020/12/27 09:38:26;;;;;;;0.28;0.00;;;18.60;39.70;;;;;;5034283;28;20040;-72
2020/12/27 09:41:07;;;;;;;0.13;0.05;;;18.60;40.00;;;;;;5024627;28;20032;-70
2020/12/27 09:43:53;;;;;;;0.10;0.10;;;18.60;40.00;;;;;;5026686;28;20033;-71
2020/12/27 09:46:47;;;;;;;0.22;0.08;;;18.60;39.90;;;;;;5024005;28;20048;-71
2020/12/27 09:49:23;;;;;;;1.02;0.10;;;18.60;40.00;;;;;;5034033;28;20060;-71
2020/12/27 09:52:05;;;;;;;0.00;0.00;;;18.70;39.80;;;;;;5037842;28;20021;-72
2020/12/27 09:54:32;;;;;;;0.85;0.10;;;18.70;39.80;;;;;;5053804;28;20033;-73
2020/12/27 09:56:58;;;;;;;0.15;0.10;;;18.70;39.90;;;;;;5033487;28;20021;-72
2020/12/27 09:59:55;;;;;;;0.40;0.10;;;18.70;40.10;;;;;;5020545;28;20041;-72
2020/12/27 10:02:24;;;;;;;0.10;0.10;;;18.70;39.90;;;;;;5045896;28;20029;-72
2020/12/27 10:04:49;;;;;;;0.17;0.10;;;18.60;39.80;;;;;;5033796;28;20025;-72
2020/12/27 10:07:15;;;;;;;0.10;0.10;;;18.60;39.90;;;;;;5051857;28;20017;-69
2020/12/27 10:09:41;;;;;;;0.10;0.10;;;18.60;39.70;;;;;;5018006;28;20029;-72
2020/12/27 10:12:06;;;;;;;0.00;0.00;;;18.60;39.50;;;;;;5051627;28;20062;-71
2020/12/27 10:14:32;;;;;;;0.10;0.10;;;18.50;39.50;;;;;;5052409;28;20126;-70
2020/12/27 10:17:00;;;;;;;0.38;0.03;;;18.50;39.80;;;;;;5051963;28;20033;-71
2020/12/27 10:19:26;;;;;;;0.05;0.05;;;18.50;39.50;;;;;;5032820;28;20162;-71
2020/12/27 10:21:52;;;;;;;0.10;0.00;;;18.50;39.40;;;;;;5051361;28;20014;-71
2020/12/27 10:24:17;;;;;;;0.20;0.10;;;18.50;39.70;;;;;;5055130;28;20031;-72
2020/12/27 10:26:52;;;;;;;0.10;0.10;;;18.40;39.70;;;;;;5034483;28;20088;-70
2020/12/27 10:29:18;;;;;;;0.23;0.10;;;18.40;39.90;;;;;;5054614;28;20094;-71
2020/12/27 10:31:49;;;;;;;0.15;0.15;;;18.50;39.70;;;;;;5054000;28;20037;-71
2020/12/27 10:34:15;;;;;;;0.10;0.00;;;18.40;39.80;;;;;;5035961;28;20025;-72
2020/12/27 10:36:44;;;;;;;1.05;0.10;;;18.40;39.60;;;;;;5052602;28;20381;-72
2020/12/27 10:39:10;;;;;;;0.10;0.10;;;18.50;39.90;;;;;;5024914;28;20112;-72
2020/12/27 10:41:41;;;;;;;0.10;0.03;;;18.50;39.70;;;;;;5043769;28;20099;-72
2020/12/27 10:44:07;;;;;;;0.00;0.00;;;18.50;39.60;;;;;;5038514;28;20500;-72
2020/12/27 10:46:33;;;;;;;0.00;0.00;;;18.40;39.50;;;;;;5035787;28;20072;-71
2020/12/27 10:48:58;;;;;;;0.10;0.10;;;18.40;39.70;;;;;;5033693;28;20122;-72
2020/12/27 10:51:24;;;;;;;0.10;0.00;;;18.50;39.60;;;;;;5032947;28;20124;-70
2020/12/27 10:53:50;;;;;;;0.08;0.08;;;18.40;39.50;;;;;;5034796;28;20044;-72
2020/12/27 10:56:15;;;;;;;0.00;0.00;;;18.40;39.60;;;;;;5052099;28;20393;-71
2020/12/27 10:58:41;;;;;;;2.38;0.20;;;18.40;39.60;;;;;;5058577;28;20472;-69
2020/12/27 11:01:07;;;;;;;2.60;0.30;;;18.60;40.70;;;;;;5049320;28;20037;-70
2020/12/27 11:03:32;;;;;;;4.28;0.45;;;18.70;40.70;;;;;;5030146;28;20492;-68
2020/12/27 11:05:58;;;;;;;0.10;0.10;;;18.70;40.60;;;;;;5022086;28;20527;-69
2020/12/27 11:08:24;;;;;;;4.72;0.22;;;18.70;40.40;;;;;;5056258;28;20404;-68
2020/12/27 11:10:49;;;;;;;0.00;0.00;;;18.70;39.70;;;;;;5052187;28;20480;-69
2020/12/27 11:13:15;;;;;;;3.10;0.10;;;18.70;39.60;;;;;;5053202;28;20485;-70
2020/12/27 11:15:40;;;;;;;0.20;0.10;;;18.60;39.80;;;;;;5045855;28;21732;-71
2020/12/27 11:18:06;;;;;;;0.08;0.08;;;18.60;40.00;;;;;;5044978;28;20037;-71
2020/12/27 11:20:44;;;;;;;0.00;0.00;;;18.60;39.60;;;;;;5044165;28;20389;-71
2020/12/27 11:23:10;;;;;;;0.00;0.00;;;18.60;39.80;;;;;;5063329;28;20021;-71
2020/12/27 11:25:36;;;;;;;1.02;0.13;;;18.70;39.70;;;;;;5071803;28;20492;-71
2020/12/27 11:28:02;;;;;;;0.08;0.08;;;18.60;39.10;;;;;;5048393;28;20043;-73
2020/12/27 11:30:27;;;;;;;0.10;0.10;;;18.60;39.00;;;;;;5030469;28;20492;-72
2020/12/27 11:32:53;;;;;;;0.00;0.00;;;18.50;38.80;;;;;;5033251;28;20020;-72
2020/12/27 11:35:19;;;;;;;0.57;0.00;;;18.50;39.00;;;;;;5060040;28;20040;-72
2020/12/27 11:37:44;;;;;;;0.00;0.00;;;18.50;39.00;;;;;;5063740;28;20024;-72
2020/12/27 11:40:10;;;;;;;0.10;0.10;;;18.50;38.90;;;;;;5054899;28;20376;-71
2020/12/27 11:45:58;;;;;;;0.05;0.05;;;18.40;38.90;;;;;;5054589;28;20486;-82
2020/12/27 11:48:24;;;;;;;0.10;0.10;;;18.40;38.90;;;;;;5066031;28;20031;-73
2020/12/27 11:50:50;;;;;;;0.03;0.03;;;18.40;38.70;;;;;;5045835;28;20420;-76
2020/12/27 11:53:15;;;;;;;0.00;0.00;;;18.40;38.80;;;;;;5054093;28;20086;-76
2020/12/27 11:55:44;;;;;;;0.10;0.00;;;18.40;38.70;;;;;;5043103;28;20183;-74
2020/12/27 11:58:09;;;;;;;0.55;0.20;;;18.50;38.90;;;;;;5057815;28;20026;-74
2020/12/27 12:00:35;;;;;;;0.20;0.20;;;18.50;38.90;;;;;;5047845;28;20033;-75
2020/12/27 12:03:00;;;;;;;0.40;0.20;;;18.50;39.00;;;;;;5035747;28;20037;-69
2020/12/27 12:05:48;;;;;;;0.30;0.30;;;18.50;39.00;;;;;;5058852;28;20038;-69
2020/12/27 12:08:13;;;;;;;2.30;0.28;;;18.50;39.00;;;;;;5059056;28;20033;-70
2020/12/27 12:10:39;;;;;;;0.38;0.30;;;18.50;39.10;;;;;;5055327;28;20492;-70
2020/12/27 12:13:04;;;;;;;0.75;0.20;;;18.50;39.00;;;;;;5070794;28;20086;-70
2020/12/27 12:15:30;;;;;;;0.40;0.20;;;18.50;39.00;;;;;;5038027;28;20488;-70
2020/12/27 12:17:55;;;;;;;0.70;0.20;;;18.50;39.00;;;;;;5054993;28;20495;-70
2020/12/27 12:23:05;;;;;;;0.63;0.30;;;18.40;39.00;;;;;;5053147;28;20032;-70
2020/12/27 12:25:30;;;;;;;0.22;0.22;;;18.40;39.20;;;;;;5057027;28;20021;-70
2020/12/27 12:27:56;;;;;;;1.75;0.20;;;18.40;39.10;;;;;;5056139;28;20074;-70
2020/12/27 12:30:24;;;;;;;0.25;0.17;;;18.40;39.20;;;;;;5036974;28;20037;-69
2020/12/27 12:32:50;;;;;;;0.20;0.20;;;18.40;39.30;;;;;;5038031;28;20116;-70
2020/12/27 12:35:15;;;;;;;0.25;0.22;;;18.40;39.30;;;;;;5055328;28;20083;-70
2020/12/27 12:37:41;;;;;;;0.10;0.10;;;18.40;39.40;;;;;;5034017;28;20572;-70
2020/12/27 12:40:07;;;;;;;0.32;0.32;;;18.50;39.40;;;;;;5047440;28;20047;-70
2020/12/27 12:42:41;;;;;;;0.03;0.03;;;18.50;39.50;;;;;;5036800;28;20075;-69
2020/12/27 12:45:07;;;;;;;0.00;0.00;;;18.50;39.50;;;;;;5056183;28;20080;-69
2020/12/27 12:47:33;;;;;;;1.20;0.10;;;18.50;39.80;;;;;;5028185;28;20087;-69
2020/12/27 12:49:59;;;;;;;0.35;0.20;;;18.50;39.80;;;;;;5031020;28;20161;-69
2020/12/27 12:52:24;;;;;;;0.55;0.17;;;18.50;39.80;;;;;;5043742;28;20037;-69
2020/12/27 12:54:50;;;;;;;0.30;0.13;;;18.50;39.60;;;;;;5054450;28;20039;-70
2020/12/27 12:57:15;;;;;;;0.25;0.20;;;18.50;39.80;;;;;;5064028;28;20518;-69
2020/12/27 12:59:44;;;;;;;0.20;0.20;;;18.50;40.00;;;;;;5074956;28;20479;-69
2020/12/27 13:02:10;;;;;;;0.22;0.10;;;18.50;39.80;;;;;;5064193;28;20370;-70
2020/12/27 13:04:36;;;;;;;0.55;0.30;;;18.50;39.80;;;;;;5054941;28;20027;-70
2020/12/27 13:07:01;;;;;;;0.10;0.10;;;18.50;39.80;;;;;;5028332;28;20508;-69
2020/12/27 13:09:30;;;;;;;0.13;0.10;;;18.40;39.70;;;;;;5046911;28;20033;-70
2020/12/27 13:11:55;;;;;;;0.25;0.20;;;18.40;39.90;;;;;;5045038;28;20021;-70
2020/12/27 13:14:21;;;;;;;0.13;0.10;;;18.50;40.00;;;;;;5049881;28;20377;-70